createdAt,value
2018-06-12T00:04:14.179Z,0
2018-06-12T00:09:13.591Z,0
2018-06-12T00:14:13.367Z,0
2018-06-12T00:19:14.214Z,0
2018-06-12T00:24:14.203Z,0
2018-06-12T00:29:13.893Z,0
2018-06-12T00:34:13.829Z,0
2018-06-12T00:39:13.554Z,0
2018-06-12T00:44:13.221Z,0
2018-06-12T00:49:13.889Z,0
2018-06-12T00:54:13.634Z,0
2018-06-12T00:59:13.397Z,0
2018-06-12T01:04:13.360Z,0
2018-06-12T01:09:13.928Z,0
2018-06-12T01:14:13.647Z,0
2018-06-12T01:19:13.474Z,0
2018-06-12T01:24:14.265Z,0
2018-06-12T01:29:14.049Z,0
2018-06-12T01:34:13.898Z,0
2018-06-12T01:39:13.681Z,0
2018-06-12T01:44:13.408Z,0
2018-06-12T01:49:14.257Z,0
2018-06-12T01:54:14.084Z,0
2018-06-12T01:59:13.877Z,0
2018-06-12T02:04:13.822Z,0
2018-06-12T02:09:13.709Z,0
2018-06-12T02:14:13.611Z,0
2018-06-12T02:19:13.341Z,0
2018-06-12T02:24:14.042Z,0
2018-06-12T02:29:13.816Z,0
2018-06-12T02:34:13.588Z,0
2018-06-12T02:39:13.318Z,0
2018-06-12T02:44:14.070Z,0
2018-06-12T02:49:13.775Z,0
2018-06-12T02:54:13.492Z,0
2018-06-12T02:59:14.215Z,0
2018-06-12T03:04:14.237Z,0
2018-06-12T03:09:13.901Z,0
2018-06-12T03:14:13.812Z,0
2018-06-12T03:19:13.610Z,0
2018-06-12T03:24:14.284Z,5
2018-06-12T03:29:13.923Z,5
2018-06-12T03:34:13.740Z,7
2018-06-12T03:39:13.433Z,7
2018-06-12T03:44:14.192Z,9.7
2018-06-12T03:49:14.033Z,9.7
2018-06-12T03:54:13.793Z,12
2018-06-12T03:59:13.543Z,12
2018-06-12T04:04:13.592Z,14
2018-06-12T04:09:13.642Z,14
2018-06-12T04:14:13.461Z,17.3
2018-06-12T04:19:14.425Z,17.3
2018-06-12T04:24:14.142Z,25.7
2018-06-12T04:29:14.257Z,25.7
2018-06-12T04:34:13.865Z,33
2018-06-12T04:39:13.597Z,33
2018-06-12T04:44:14.380Z,35.8
2018-06-12T04:49:14.249Z,35.8
2018-06-12T04:54:14.012Z,39.3
2018-06-12T04:59:13.759Z,39.3
2018-06-12T05:04:13.720Z,49
2018-06-12T05:09:13.726Z,49
2018-06-12T05:14:13.603Z,65
2018-06-12T05:19:14.359Z,65
2018-06-12T05:24:14.101Z,76.3
2018-06-12T05:29:13.791Z,76.3
2018-06-12T05:34:13.556Z,70
2018-06-12T05:39:14.313Z,70
2018-06-12T05:44:14.108Z,65.7
2018-06-12T05:49:13.869Z,65.7
2018-06-12T05:54:13.559Z,147.7
2018-06-12T05:59:14.322Z,147.7
2018-06-12T06:04:14.551Z,147
2018-06-12T06:09:14.331Z,147
2018-06-12T06:14:14.281Z,139
2018-06-12T06:19:14.205Z,139
2018-06-12T06:24:13.935Z,99.7
2018-06-12T06:29:13.694Z,99.7
2018-06-12T06:34:14.571Z,90.3
2018-06-12T06:39:14.282Z,90.3
2018-06-12T06:44:14.143Z,157.3
2018-06-12T06:49:13.859Z,157.3
2018-06-12T06:54:14.512Z,161.5
2018-06-12T06:59:14.206Z,161.5
2018-06-12T07:04:14.222Z,103.3
2018-06-12T07:09:13.644Z,103.3
2018-06-12T07:14:14.379Z,103.7
2018-06-12T07:19:14.263Z,103.7
2018-06-12T07:24:14.043Z,139.8
2018-06-12T07:29:13.731Z,139.8
2018-06-12T07:34:14.471Z,140.3
2018-06-12T07:39:14.283Z,140.3
2018-06-12T07:44:13.913Z,169
2018-06-12T07:49:14.683Z,169
2018-06-12T07:54:14.419Z,222.2
2018-06-12T07:59:14.094Z,222.2
2018-06-12T08:04:14.357Z,128.7
2018-06-12T08:09:14.366Z,128.7
2018-06-12T08:14:14.188Z,209.7
2018-06-12T08:19:13.925Z,209.7
2018-06-12T08:24:14.573Z,156.3
2018-06-12T08:29:14.327Z,156.3
2018-06-12T08:34:14.085Z,245
2018-06-12T08:39:13.795Z,245
2018-06-12T08:44:14.388Z,195
2018-06-12T08:49:14.149Z,195
2018-06-12T08:54:13.828Z,176.5
2018-06-12T08:59:14.549Z,176.5
2018-06-12T09:04:14.319Z,176.2
2018-06-12T09:09:14.396Z,176.2
2018-06-12T09:14:14.269Z,209.5
2018-06-12T09:19:14.019Z,209.5
2018-06-12T09:24:14.684Z,192.5
2018-06-12T09:29:14.353Z,192.5
2018-06-12T09:34:14.132Z,156.7
2018-06-12T09:39:13.806Z,156.7
2018-06-12T09:44:14.480Z,158.7
2018-06-12T09:49:14.275Z,158.7
2018-06-12T09:54:14.065Z,210.7
2018-06-12T09:59:14.733Z,210.7
2018-06-12T10:04:14.596Z,218.8
2018-06-12T10:09:13.893Z,218.8
2018-06-12T10:14:14.575Z,161.7
2018-06-12T10:19:14.319Z,161.7
2018-06-12T10:24:13.952Z,196.8
2018-06-12T10:29:14.803Z,196.8
2018-06-12T10:34:14.600Z,167
2018-06-12T10:39:13.845Z,167
2018-06-12T10:44:14.537Z,170.7
2018-06-12T10:49:14.521Z,170.7
2018-06-12T10:54:14.176Z,206.2
2018-06-12T10:59:14.139Z,206.2
2018-06-12T11:04:13.973Z,340.2
2018-06-12T11:09:14.307Z,340.2
2018-06-12T11:14:14.360Z,176.5
2018-06-12T11:19:14.123Z,176.5
2018-06-12T11:24:14.858Z,210
2018-06-12T11:29:14.657Z,210
2018-06-12T11:34:14.470Z,250
2018-06-12T11:39:14.819Z,250
2018-06-12T11:44:14.561Z,338
2018-06-12T11:49:14.430Z,338
2018-06-12T11:54:14.144Z,202
2018-06-12T11:59:14.845Z,202
2018-06-12T12:04:14.691Z,174.3
2018-06-12T12:09:14.459Z,174.3
2018-06-12T12:14:14.208Z,206
2018-06-12T12:19:14.009Z,206
2018-06-12T12:24:14.661Z,253.8
2018-06-12T12:29:15.067Z,253.8
2018-06-12T12:34:14.849Z,330.8
2018-06-12T12:39:14.500Z,330.8
2018-06-12T12:44:14.129Z,189.8
2018-06-12T12:49:14.935Z,189.8
2018-06-12T12:54:14.743Z,156.7
2018-06-12T12:59:14.423Z,156.7
2018-06-12T13:04:14.244Z,245
2018-06-12T13:09:15.041Z,245
2018-06-12T13:14:14.269Z,347.3
2018-06-12T13:19:15.006Z,347.3
2018-06-12T13:24:14.695Z,198
2018-06-12T13:29:14.409Z,198
2018-06-12T13:34:14.106Z,75.8
2018-06-12T13:39:14.779Z,75.8
2018-06-12T13:44:14.473Z,92
2018-06-12T13:49:14.200Z,92
2018-06-12T13:54:14.101Z,129.7
2018-06-12T13:59:14.845Z,129.7
2018-06-12T14:04:14.482Z,224.2
2018-06-12T14:09:14.903Z,224.2
2018-06-12T14:14:14.226Z,143.8
2018-06-12T14:19:14.880Z,143.8
2018-06-12T14:24:14.646Z,139.8
2018-06-12T14:29:14.375Z,139.8
2018-06-12T14:34:14.259Z,99
2018-06-12T14:39:15.037Z,99
2018-06-12T14:44:14.699Z,93
2018-06-12T14:49:14.434Z,93
2018-06-12T14:54:14.170Z,47
2018-06-12T14:59:15.067Z,47
2018-06-12T15:04:14.936Z,78.5
2018-06-12T15:09:14.760Z,78.5
2018-06-12T15:14:14.339Z,154
2018-06-12T15:19:14.984Z,154
2018-06-12T15:24:14.277Z,96.8
2018-06-12T15:29:15.007Z,96.8
2018-06-12T15:34:14.780Z,71.3
2018-06-12T15:39:14.537Z,71.3
2018-06-12T15:44:14.306Z,133.8
2018-06-12T15:49:15.061Z,133.8
2018-06-12T15:54:14.796Z,105.5
2018-06-12T15:59:14.483Z,105.5
2018-06-12T16:04:14.403Z,78
2018-06-12T16:09:15.174Z,78
2018-06-12T16:14:14.777Z,70.2
2018-06-12T16:19:14.442Z,70.2
2018-06-12T16:24:15.117Z,67.5
2018-06-12T16:29:14.805Z,67.5
2018-06-12T16:34:14.567Z,49.7
2018-06-12T16:39:15.564Z,49.7
2018-06-12T16:44:14.392Z,96.5
2018-06-12T16:49:15.229Z,96.5
2018-06-12T16:54:14.874Z,36
2018-06-12T16:59:14.554Z,36
2018-06-12T17:04:15.465Z,58.8
2018-06-12T17:09:15.205Z,58.8
2018-06-12T17:14:14.432Z,41.8
2018-06-12T17:19:15.282Z,41.8
2018-06-12T17:24:15.067Z,19.7
2018-06-12T17:29:14.763Z,19.7
2018-06-12T17:34:14.628Z,36.3
2018-06-12T17:39:14.411Z,36.3
2018-06-12T17:44:15.025Z,47.7
2018-06-12T17:49:14.794Z,47.7
2018-06-12T17:54:14.578Z,38.3
2018-06-12T17:59:15.330Z,38.3
2018-06-12T18:04:15.099Z,28
2018-06-12T18:09:14.981Z,28
2018-06-12T18:14:15.192Z,40
2018-06-12T18:19:14.918Z,40
2018-06-12T18:24:14.707Z,27.5
2018-06-12T18:29:14.512Z,27.5
2018-06-12T18:34:15.367Z,25.3
2018-06-12T18:39:15.203Z,25.3
2018-06-12T18:44:14.805Z,25
2018-06-12T18:49:14.559Z,25
2018-06-12T18:54:15.342Z,23.3
2018-06-12T18:59:14.984Z,23.3
2018-06-12T19:04:14.871Z,25.2
2018-06-12T19:09:14.653Z,25.2
2018-06-12T19:14:15.065Z,19.7
2018-06-12T19:19:14.922Z,19.7
2018-06-12T19:24:14.640Z,5.7
2018-06-12T19:29:15.408Z,5.7
2018-06-12T19:34:15.332Z,7
2018-06-12T19:39:15.052Z,7
2018-06-12T19:44:14.779Z,0
2018-06-12T19:49:14.539Z,0
2018-06-12T19:54:15.259Z,0
2018-06-12T19:59:14.927Z,0
2018-06-12T20:04:14.820Z,0
2018-06-12T20:09:15.541Z,0
2018-06-12T20:14:14.712Z,0
2018-06-12T20:19:15.516Z,0
2018-06-12T20:24:15.347Z,0
2018-06-12T20:29:15.080Z,0
2018-06-12T20:34:15.111Z,0
2018-06-12T20:39:14.905Z,0
2018-06-12T20:44:14.713Z,0
2018-06-12T20:49:15.584Z,0
2018-06-12T20:54:15.502Z,0
2018-06-12T20:59:15.379Z,0
2018-06-12T21:04:15.488Z,0
2018-06-12T21:09:15.193Z,0
2018-06-12T21:14:14.725Z,0
2018-06-12T21:19:15.548Z,0
2018-06-12T21:24:15.303Z,0
2018-06-12T21:29:14.983Z,0
2018-06-12T21:34:14.790Z,0
2018-06-12T21:39:15.530Z,0
2018-06-12T21:44:15.345Z,0
2018-06-12T21:49:15.097Z,0
2018-06-12T21:54:14.834Z,0
2018-06-12T21:59:15.601Z,0
2018-06-12T22:04:14.923Z,0
2018-06-12T22:09:15.659Z,0
2018-06-12T22:14:14.843Z,0
2018-06-12T22:19:15.664Z,0
2018-06-12T22:24:15.423Z,0
2018-06-12T22:29:15.078Z,0
2018-06-12T22:34:14.745Z,0
2018-06-12T22:39:15.442Z,0
2018-06-12T22:44:15.272Z,0
2018-06-12T22:49:15.036Z,0
2018-06-12T22:54:15.037Z,0
2018-06-12T22:59:14.796Z,0
2018-06-12T23:04:15.695Z,0
2018-06-12T23:09:15.469Z,0
2018-06-12T23:14:14.165Z,0
2018-06-12T23:19:15.043Z,0
2018-06-12T23:24:15.826Z,0
2018-06-12T23:29:15.551Z,0
2018-06-12T23:34:15.303Z,0
2018-06-12T23:39:15.061Z,0
2018-06-12T23:44:14.978Z,0
2018-06-12T23:49:15.761Z,0
2018-06-12T23:54:15.534Z,0
2018-06-12T23:59:15.304Z,0
